createdAt,value
2019-02-27T00:03:31.696Z,23.40
2019-02-27T00:08:36.715Z,24.63
2019-02-27T00:13:38.875Z,24.40
2019-02-27T00:18:42.706Z,24.10
2019-02-27T00:23:47.973Z,24.00
2019-02-27T00:28:51.207Z,23.33
2019-02-27T00:33:53.231Z,23.00
2019-02-27T00:38:58.019Z,22.83
2019-02-27T00:44:04.238Z,23.07
2019-02-27T00:49:06.252Z,22.67
2019-02-27T00:54:15.959Z,23.30
2019-02-27T00:59:19.434Z,22.97
2019-02-27T01:04:21.671Z,21.97
2019-02-27T01:09:26.083Z,22.10
2019-02-27T01:14:30.720Z,22.67
2019-02-27T01:19:32.984Z,23.17
2019-02-27T01:24:35.166Z,22.47
2019-02-27T01:29:38.893Z,22.43
2019-02-27T01:34:44.223Z,21.30
2019-02-27T01:39:45.157Z,21.63
2019-02-27T01:44:50.179Z,21.70
2019-02-27T01:49:52.228Z,21.97
2019-02-27T01:54:59.642Z,22.20
2019-02-27T02:00:01.717Z,21.10
2019-02-27T02:05:04.203Z,21.17
2019-02-27T02:10:06.460Z,21.20
2019-02-27T02:15:27.145Z,22.67
2019-02-27T02:20:55.337Z,22.33
2019-02-27T02:26:35.050Z,22.03
2019-02-27T02:32:04.564Z,21.83
2019-02-27T02:37:45.192Z,22.77
2019-02-27T02:43:10.352Z,22.03
2019-02-27T02:49:07.876Z,22.87
2019-02-27T02:54:42.151Z,22.53
2019-02-27T02:59:59.416Z,21.93
2019-02-27T03:05:29.118Z,23.90
2019-02-27T03:10:42.783Z,23.67
2019-02-27T03:16:13.682Z,24.57
2019-02-27T03:22:03.239Z,22.87
2019-02-27T03:27:33.629Z,23.07
2019-02-27T03:32:47.472Z,22.63
2019-02-27T03:38:29.955Z,23.70
2019-02-27T03:44:01.288Z,24.67
2019-02-27T03:49:48.941Z,22.40
2019-02-27T03:55:43.878Z,24.30
2019-02-27T04:01:21.574Z,24.97
2019-02-27T04:07:06.192Z,23.87
2019-02-27T04:12:08.320Z,23.50
2019-02-27T04:17:11.568Z,23.27
2019-02-27T04:22:13.592Z,23.90
2019-02-27T04:27:21.257Z,24.07
2019-02-27T04:32:23.499Z,23.40
2019-02-27T04:37:25.512Z,22.97
2019-02-27T04:42:27.635Z,22.30
2019-02-27T04:47:36.438Z,23.33
2019-02-27T04:52:38.553Z,22.80
2019-02-27T04:57:40.566Z,22.80
2019-02-27T05:02:42.634Z,23.50
2019-02-27T05:07:46.655Z,23.20
2019-02-27T05:12:49.252Z,24.63
2019-02-27T05:17:55.620Z,24.50
2019-02-27T05:23:00.483Z,24.13
2019-02-27T05:28:03.441Z,24.27
2019-02-27T05:33:05.563Z,24.10
2019-02-27T05:38:07.655Z,24.13
2019-02-27T05:43:13.180Z,22.37
2019-02-27T05:48:13.880Z,25.27
2019-02-27T05:53:16.281Z,23.40
2019-02-27T05:58:18.347Z,24.77
2019-02-27T06:03:20.383Z,23.90
2019-02-27T06:08:25.530Z,24.67
2019-02-27T06:13:27.842Z,23.77
2019-02-27T06:18:29.974Z,24.33
2019-02-27T06:23:35.408Z,24.50
2019-02-27T06:28:37.438Z,23.83
2019-02-27T06:33:44.981Z,24.73
2019-02-27T06:38:46.370Z,25.30
2019-02-27T06:43:48.930Z,24.10
2019-02-27T06:48:56.510Z,24.27
2019-02-27T06:54:00.228Z,25.87
2019-02-27T06:59:02.268Z,24.30
2019-02-27T07:04:09.249Z,24.87
2019-02-27T07:09:12.197Z,23.90
2019-02-27T07:14:14.361Z,24.77
2019-02-27T07:19:16.450Z,24.53
2019-02-27T07:24:18.676Z,25.47
2019-02-27T07:29:22.054Z,25.07
2019-02-27T07:34:24.870Z,24.27
2019-02-27T07:39:32.581Z,24.37
2019-02-27T07:44:35.886Z,23.50
2019-02-27T07:49:37.971Z,24.23
2019-02-27T07:54:44.390Z,23.93
2019-02-27T07:59:46.684Z,25.77
2019-02-27T08:04:48.987Z,24.23
2019-02-27T08:09:50.941Z,23.80
2019-02-27T08:14:54.717Z,24.70
2019-02-27T08:19:58.663Z,24.67
2019-02-27T08:25:02.677Z,23.80
2019-02-27T08:30:07.016Z,24.83
2019-02-27T08:35:11.769Z,24.73
2019-02-27T08:40:15.827Z,24.53
2019-02-27T08:45:20.002Z,25.27
2019-02-27T08:50:24.120Z,24.70
2019-02-27T08:55:27.622Z,23.23
2019-02-27T09:00:31.951Z,23.83
2019-02-27T09:05:34.268Z,23.73
2019-02-27T09:10:38.780Z,24.37
2019-02-27T09:15:41.730Z,24.53
2019-02-27T09:20:53.045Z,23.50
2019-02-27T09:25:57.164Z,23.90
2019-02-27T09:31:03.188Z,24.53
2019-02-27T09:36:05.157Z,23.20
2019-02-27T09:41:12.184Z,23.97
2019-02-27T09:46:19.234Z,23.63
2019-02-27T09:51:22.170Z,22.20
2019-02-27T09:56:26.085Z,22.57
2019-02-27T10:01:29.250Z,21.43
2019-02-27T10:06:32.927Z,21.07
2019-02-27T10:11:37.461Z,18.87
2019-02-27T10:16:39.798Z,18.90
2019-02-27T10:21:44.559Z,17.83
2019-02-27T10:26:46.243Z,17.27
2019-02-27T10:31:48.269Z,17.47
2019-02-27T10:36:52.569Z,18.63
2019-02-27T10:41:56.379Z,19.13
2019-02-27T10:47:00.073Z,18.80
2019-02-27T10:52:02.421Z,17.73
2019-02-27T10:57:05.964Z,18.23
2019-02-27T11:02:12.403Z,17.70
2019-02-27T11:07:15.988Z,17.80
2019-02-27T11:12:18.453Z,18.03
2019-02-27T11:17:20.651Z,16.87
2019-02-27T11:22:25.537Z,16.33
2019-02-27T11:27:31.575Z,16.77
2019-02-27T11:32:33.704Z,15.73
2019-02-27T11:37:39.014Z,14.70
2019-02-27T11:42:41.068Z,15.37
2019-02-27T11:47:47.998Z,14.70
2019-02-27T11:52:51.289Z,14.00
2019-02-27T11:57:53.389Z,15.27
2019-02-27T12:02:58.217Z,13.37
2019-02-27T12:08:04.975Z,13.10
2019-02-27T12:13:11.904Z,13.30
2019-02-27T12:18:13.939Z,12.70
2019-02-27T12:23:18.136Z,13.63
2019-02-27T12:28:20.208Z,14.37
2019-02-27T12:33:29.200Z,13.33
2019-02-27T12:38:28.896Z,12.60
2019-02-27T12:43:35.052Z,12.07
2019-02-27T12:48:37.167Z,13.53
2019-02-27T12:53:39.231Z,14.93
2019-02-27T12:58:44.379Z,14.10
2019-02-27T13:03:46.476Z,14.63
2019-02-27T13:08:52.602Z,15.57
2019-02-27T13:13:57.241Z,15.13
2019-02-27T13:18:59.090Z,14.53
2019-02-27T13:24:01.151Z,15.23
2019-02-27T13:29:03.185Z,15.03
2019-02-27T13:34:07.795Z,16.23
2019-02-27T13:39:12.363Z,14.37
2019-02-27T13:44:18.823Z,16.23
2019-02-27T13:49:27.901Z,15.57
2019-02-27T13:54:34.883Z,15.40
2019-02-27T13:59:36.908Z,14.57
2019-02-27T14:04:42.060Z,15.07
2019-02-27T14:09:45.921Z,15.33
2019-02-27T14:14:52.142Z,15.73
2019-02-27T14:19:52.011Z,16.83
2019-02-27T14:24:54.835Z,16.40
2019-02-27T14:29:57.965Z,16.50
2019-02-27T14:35:01.547Z,16.20
2019-02-27T14:40:05.495Z,17.10
2019-02-27T14:45:11.215Z,17.13
2019-02-27T14:50:16.890Z,16.50
2019-02-27T14:55:19.284Z,17.27
2019-02-27T15:00:24.648Z,15.97
2019-02-27T15:05:27.275Z,18.73
2019-02-27T15:10:33.643Z,18.10
2019-02-27T15:15:35.812Z,18.23
2019-02-27T15:20:41.092Z,18.37
2019-02-27T15:25:46.626Z,19.60
2019-02-27T15:30:50.671Z,19.03
2019-02-27T15:35:56.338Z,19.63
2019-02-27T15:41:03.217Z,18.33
2019-02-27T15:46:05.801Z,20.77
2019-02-27T15:51:07.890Z,18.77
2019-02-27T15:56:13.579Z,19.40
2019-02-27T16:01:18.439Z,18.93
2019-02-27T16:06:25.550Z,18.63
2019-02-27T16:11:27.694Z,20.17
2019-02-27T16:16:32.577Z,18.87
2019-02-27T16:21:34.594Z,19.57
2019-02-27T16:26:39.533Z,19.00
2019-02-27T16:31:42.757Z,19.93
2019-02-27T16:36:46.907Z,21.43
2019-02-27T16:41:50.773Z,21.10
2019-02-27T16:46:54.566Z,22.40
2019-02-27T16:52:00.288Z,22.23
2019-02-27T16:57:08.217Z,23.60
2019-02-27T17:02:12.691Z,23.27
2019-02-27T17:07:20.012Z,24.47
2019-02-27T17:12:22.889Z,22.83
2019-02-27T17:17:24.930Z,23.27
2019-02-27T17:22:27.053Z,24.57
2019-02-27T17:27:32.807Z,24.80
2019-02-27T17:32:39.032Z,26.33
2019-02-27T17:37:41.102Z,27.13
2019-02-27T17:42:43.618Z,26.90
2019-02-27T17:47:45.789Z,26.53
2019-02-27T17:52:49.124Z,26.90
2019-02-27T17:57:51.828Z,28.27
2019-02-27T18:02:56.286Z,28.70
2019-02-27T18:08:03.375Z,28.93
2019-02-27T18:13:05.351Z,28.67
2019-02-27T18:18:10.661Z,28.93
2019-02-27T18:23:21.989Z,29.10
2019-02-27T18:28:33.071Z,29.80
2019-02-27T18:33:35.192Z,28.87
2019-02-27T18:38:37.278Z,29.57
2019-02-27T18:43:39.313Z,30.60
2019-02-27T18:48:43.809Z,31.63
2019-02-27T18:53:48.336Z,31.50
2019-02-27T18:58:55.590Z,33.57
2019-02-27T19:04:01.291Z,33.13
2019-02-27T19:09:05.491Z,32.27
2019-02-27T19:14:07.606Z,33.10
2019-02-27T19:19:13.782Z,32.97
2019-02-27T19:24:16.068Z,32.97
2019-02-27T19:29:21.065Z,33.13
2019-02-27T19:34:23.406Z,35.43
2019-02-27T19:39:28.956Z,33.97
2019-02-27T19:44:32.088Z,35.07
2019-02-27T19:49:37.336Z,34.20
2019-02-27T19:54:39.375Z,35.33
2019-02-27T19:59:59.694Z,35.10
2019-02-27T20:05:11.120Z,35.30
2019-02-27T20:10:14.016Z,34.53
2019-02-27T20:15:18.005Z,35.43
2019-02-27T20:20:25.075Z,35.87
2019-02-27T20:25:30.523Z,37.17
2019-02-27T20:30:32.519Z,36.70
2019-02-27T20:35:34.820Z,37.43
2019-02-27T20:40:39.243Z,37.43
2019-02-27T20:45:42.911Z,37.07
2019-02-27T20:50:51.446Z,37.97
2019-02-27T20:55:53.584Z,38.70
2019-02-27T21:00:55.788Z,38.37
2019-02-27T21:05:57.998Z,38.40
2019-02-27T21:11:01.237Z,39.37
2019-02-27T21:16:03.945Z,42.67
2019-02-27T21:21:08.107Z,38.77
2019-02-27T21:26:11.245Z,39.60
2019-02-27T21:31:15.213Z,40.33
2019-02-27T21:36:17.643Z,39.97
2019-02-27T21:41:20.600Z,38.80
2019-02-27T21:46:22.864Z,39.63
2019-02-27T21:51:24.941Z,38.73
2019-02-27T21:56:27.081Z,39.80
2019-02-27T22:01:31.007Z,38.70
2019-02-27T22:06:36.844Z,38.97
2019-02-27T22:11:39.256Z,40.43
2019-02-27T22:16:42.730Z,40.07
2019-02-27T22:21:50.969Z,39.87
2019-02-27T22:26:53.095Z,38.57
2019-02-27T22:31:57.556Z,38.27
2019-02-27T22:37:01.641Z,37.87
2019-02-27T22:42:05.852Z,40.23
2019-02-27T22:47:08.044Z,38.73
2019-02-27T22:52:13.109Z,38.80
2019-02-27T22:57:15.407Z,39.53
2019-02-27T23:02:18.166Z,37.23
2019-02-27T23:07:24.583Z,38.93
2019-02-27T23:12:26.664Z,40.53
2019-02-27T23:17:31.810Z,39.03
2019-02-27T23:22:35.231Z,39.73
2019-02-27T23:27:37.372Z,39.13
2019-02-27T23:32:39.684Z,39.93
2019-02-27T23:37:44.694Z,39.67
2019-02-27T23:42:47.996Z,41.53
2019-02-27T23:47:50.040Z,39.00
2019-02-27T23:52:53.240Z,41.00
2019-02-27T23:57:59.038Z,40.13
